createdAt,value
2022-11-05T00:00:33.595Z,97067.00
2022-11-05T00:03:19.225Z,97072.13
2022-11-05T00:06:04.819Z,97063.41
2022-11-05T00:08:49.948Z,97078.09
2022-11-05T00:11:18.264Z,97073.75
2022-11-05T00:14:03.614Z,97078.09
2022-11-05T00:16:45.016Z,97084.94
2022-11-05T00:19:11.495Z,97089.16
2022-11-05T00:21:57.207Z,97092.59
2022-11-05T00:24:42.705Z,97091.72
2022-11-05T00:27:09.314Z,97093.44
2022-11-05T00:29:35.837Z,97099.41
2022-11-05T00:32:02.323Z,97104.53
2022-11-05T00:34:28.826Z,97104.53
2022-11-05T00:36:55.973Z,97111.38
2022-11-05T00:39:22.482Z,97113.97
2022-11-05T00:42:08.939Z,97118.19
2022-11-05T00:45:10.619Z,97122.47
2022-11-05T00:47:56.911Z,97122.47
2022-11-05T00:50:23.436Z,97121.63
2022-11-05T00:52:57.152Z,97122.41
2022-11-05T00:55:43.372Z,97136.13
2022-11-05T00:58:20.631Z,97136.13
2022-11-05T01:00:54.147Z,97143.78
2022-11-05T01:03:22.903Z,97155.75
2022-11-05T01:05:56.308Z,97145.44
2022-11-05T01:08:23.706Z,97145.50
2022-11-05T01:10:52.660Z,97140.38
2022-11-05T01:13:25.549Z,97145.50
2022-11-05T01:15:52.240Z,97158.31
2022-11-05T01:18:18.985Z,97152.34
2022-11-05T01:20:45.542Z,97146.22
2022-11-05T01:23:13.691Z,97159.19
2022-11-05T01:25:43.934Z,97158.31
2022-11-05T01:28:10.456Z,97158.31
2022-11-05T01:30:37.085Z,97153.97
2022-11-05T01:33:03.674Z,97158.22
2022-11-05T01:35:30.140Z,97171.13
2022-11-05T01:37:56.629Z,97175.44
2022-11-05T01:40:23.349Z,97169.41
2022-11-05T01:42:49.869Z,97177.13
2022-11-05T01:45:26.662Z,97178.81
2022-11-05T01:48:16.336Z,97181.38
2022-11-05T01:50:47.272Z,97178.00
2022-11-05T01:53:34.884Z,97179.69
2022-11-05T01:56:03.603Z,97174.56
2022-11-05T01:58:36.790Z,97153.84
2022-11-05T02:01:03.381Z,97172.88
2022-11-05T02:03:29.862Z,97173.69
2022-11-05T02:05:56.934Z,97171.13
2022-11-05T02:08:49.696Z,97180.53
2022-11-05T02:11:17.382Z,97186.47
2022-11-05T02:13:43.861Z,97177.81
2022-11-05T02:16:31.531Z,97188.19
2022-11-05T02:19:22.353Z,97186.47
2022-11-05T02:22:07.551Z,97192.47
2022-11-05T02:25:02.362Z,97186.47
2022-11-05T02:27:37.756Z,97181.38
2022-11-05T02:30:08.576Z,97180.53
2022-11-05T02:32:40.870Z,97176.19
2022-11-05T02:35:31.374Z,97185.66
2022-11-05T02:38:38.031Z,97185.66
2022-11-05T02:41:38.614Z,97184.78
2022-11-05T02:44:22.968Z,97174.38
2022-11-05T02:47:01.391Z,97178.78
2022-11-05T02:49:55.701Z,97186.47
2022-11-05T02:52:49.816Z,97177.09
2022-11-05T02:55:33.348Z,97183.91
2022-11-05T02:58:00.053Z,97174.53
2022-11-05T03:00:41.895Z,97175.41
2022-11-05T03:03:14.946Z,97175.34
2022-11-05T03:05:56.312Z,97174.53
2022-11-05T03:08:42.966Z,97178.81
2022-11-05T03:11:19.857Z,97163.25
2022-11-05T03:13:57.950Z,97184.78
2022-11-05T03:16:27.375Z,97186.53
2022-11-05T03:19:06.711Z,97183.91
2022-11-05T03:21:44.570Z,97185.66
2022-11-05T03:24:15.877Z,97184.00
2022-11-05T03:26:54.483Z,97183.09
2022-11-05T03:29:36.240Z,97181.25
2022-11-05T03:32:02.994Z,97197.66
2022-11-05T03:34:40.293Z,97199.34
2022-11-05T03:37:06.770Z,97206.91
2022-11-05T03:39:36.079Z,97219.88
2022-11-05T03:42:03.365Z,97223.31
2022-11-05T03:44:31.483Z,97221.59
2022-11-05T03:47:02.485Z,97218.91
2022-11-05T03:49:31.923Z,97238.69
2022-11-05T03:51:59.216Z,97239.56
2022-11-05T03:54:25.752Z,97247.22
2022-11-05T03:57:03.415Z,97248.91
2022-11-05T03:59:30.662Z,97252.34
2022-11-05T04:01:57.302Z,97248.75
2022-11-05T04:04:24.150Z,97259.16
2022-11-05T04:07:09.218Z,97252.25
2022-11-05T04:09:54.182Z,97263.44
2022-11-05T04:12:38.975Z,97264.31
2022-11-05T04:15:05.893Z,97262.47
2022-11-05T04:17:32.527Z,97259.19
2022-11-05T04:20:17.590Z,97266.88
2022-11-05T04:23:02.217Z,97260.75
2022-11-05T04:25:28.694Z,97272.88
2022-11-05T04:27:58.645Z,97275.41
2022-11-05T04:30:25.154Z,97282.25
2022-11-05T04:33:02.667Z,97283.13
2022-11-05T04:35:31.038Z,97279.63
2022-11-05T04:37:57.581Z,97283.13
2022-11-05T04:40:24.277Z,97281.38
2022-11-05T04:42:50.760Z,97283.13
2022-11-05T04:45:17.297Z,97274.44
2022-11-05T04:47:43.821Z,97276.25
2022-11-05T04:50:12.101Z,97283.13
2022-11-05T04:52:39.326Z,97279.69
2022-11-05T04:55:06.210Z,97283.97
2022-11-05T04:57:32.688Z,97277.16
2022-11-05T04:59:59.254Z,97286.53
2022-11-05T05:02:25.734Z,97289.09
2022-11-05T05:04:52.231Z,97289.09
2022-11-05T05:07:18.771Z,97288.28
2022-11-05T05:09:45.278Z,97291.66
2022-11-05T05:12:11.783Z,97287.41
2022-11-05T05:14:38.399Z,97288.25
2022-11-05T05:17:04.966Z,97290.81
2022-11-05T05:19:51.438Z,97292.53
2022-11-05T05:22:17.975Z,97299.34
2022-11-05T05:24:48.596Z,97301.88
2022-11-05T05:27:18.038Z,97305.28
2022-11-05T05:29:44.568Z,97313.00
2022-11-05T05:32:11.057Z,97317.25
2022-11-05T05:34:37.573Z,97300.72
2022-11-05T05:37:04.321Z,97325.78
2022-11-05T05:39:30.815Z,97326.66
2022-11-05T05:41:57.298Z,97336.00
2022-11-05T05:44:23.805Z,97326.66
2022-11-05T05:46:50.280Z,97335.19
2022-11-05T05:49:16.802Z,97330.94
2022-11-05T05:51:43.316Z,97329.22
2022-11-05T05:54:10.918Z,97334.34
2022-11-05T05:56:37.443Z,97330.03
2022-11-05T05:59:05.189Z,97336.03
2022-11-05T06:01:31.849Z,97344.59
2022-11-05T06:03:58.434Z,97339.47
2022-11-05T06:06:24.992Z,97349.72
2022-11-05T06:08:51.463Z,97347.88
2022-11-05T06:11:17.939Z,97353.97
2022-11-05T06:13:44.438Z,97352.25
2022-11-05T06:16:10.925Z,97354.69
2022-11-05T06:18:37.485Z,97360.75
2022-11-05T06:21:09.252Z,97362.50
2022-11-05T06:23:36.871Z,97375.31
2022-11-05T06:26:04.758Z,97375.31
2022-11-05T06:28:31.463Z,97382.13
2022-11-05T06:30:57.958Z,97376.00
2022-11-05T06:33:24.507Z,97382.06
2022-11-05T06:35:51.119Z,97376.13
2022-11-05T06:38:17.642Z,97387.25
2022-11-05T06:40:44.106Z,97389.81
2022-11-05T06:43:10.856Z,97386.34
2022-11-05T06:45:37.529Z,97393.25
2022-11-05T06:48:04.213Z,97394.94
2022-11-05T06:50:30.717Z,97400.06
2022-11-05T06:53:01.372Z,97396.53
2022-11-05T06:55:29.297Z,97407.75
2022-11-05T06:57:56.183Z,97416.31
2022-11-05T07:00:22.953Z,97417.16
2022-11-05T07:02:49.567Z,97418.00
2022-11-05T07:05:16.125Z,97423.97
2022-11-05T07:07:43.364Z,97431.72
2022-11-05T07:10:15.269Z,97321.63
2022-11-05T07:12:41.883Z,97437.63
2022-11-05T07:15:09.084Z,97448.75
2022-11-05T07:17:35.590Z,97443.63
2022-11-05T07:20:02.137Z,97450.47
2022-11-05T07:22:28.643Z,97469.28
2022-11-05T07:24:55.120Z,97464.13
2022-11-05T07:27:21.677Z,97461.53
2022-11-05T07:29:48.171Z,97469.25
2022-11-05T07:32:14.686Z,97474.38
2022-11-05T07:34:41.196Z,97472.66
2022-11-05T07:37:07.719Z,97463.94
2022-11-05T07:39:34.190Z,97482.00
2022-11-05T07:42:00.686Z,97480.28
2022-11-05T07:44:27.186Z,97483.66
2022-11-05T07:46:53.684Z,97474.09
2022-11-05T07:49:20.156Z,97487.94
2022-11-05T07:51:46.650Z,97492.19
2022-11-05T07:54:13.112Z,97492.19
2022-11-05T07:56:39.602Z,97490.41
2022-11-05T07:59:06.169Z,97492.94
2022-11-05T08:01:32.825Z,97495.50
2022-11-05T08:03:59.477Z,97492.94
2022-11-05T08:06:25.983Z,97491.16
2022-11-05T08:08:52.453Z,97500.59
2022-11-05T08:11:19.015Z,97507.41
2022-11-05T08:13:45.772Z,97502.22
2022-11-05T08:16:12.238Z,97502.28
2022-11-05T08:18:39.429Z,97509.94
2022-11-05T08:21:06.173Z,97514.16
2022-11-05T08:23:32.888Z,97511.59
2022-11-05T08:25:59.349Z,97511.59
2022-11-05T08:28:26.109Z,97507.28
2022-11-05T08:30:54.634Z,97509.03
2022-11-05T08:33:21.523Z,97515.00
2022-11-05T08:35:48.052Z,97514.16
2022-11-05T08:38:15.524Z,97505.66
2022-11-05T08:40:42.674Z,97506.41
2022-11-05T08:43:10.782Z,97504.72
2022-11-05T08:45:38.461Z,97508.19
2022-11-05T08:48:06.915Z,97511.59
2022-11-05T08:50:33.515Z,97505.69
2022-11-05T08:53:00.051Z,97514.22
2022-11-05T08:55:26.664Z,97509.09
2022-11-05T08:58:00.271Z,97514.22
2022-11-05T09:00:27.287Z,97516.78
2022-11-05T09:02:53.839Z,97517.66
2022-11-05T09:05:20.402Z,97535.63
2022-11-05T09:07:46.898Z,97527.94
2022-11-05T09:10:13.418Z,97537.28
2022-11-05T09:12:39.919Z,97536.50
2022-11-05T09:15:06.807Z,97538.19
2022-11-05T09:17:33.312Z,97526.25
2022-11-05T09:19:59.829Z,97533.09
2022-11-05T09:22:26.413Z,97534.75
2022-11-05T09:24:52.888Z,97536.53
2022-11-05T09:27:19.386Z,97529.66
2022-11-05T09:29:45.902Z,97526.13
2022-11-05T09:32:12.406Z,97534.78
2022-11-05T09:34:38.919Z,97539.91
2022-11-05T09:37:05.402Z,97545.84
2022-11-05T09:39:31.956Z,97533.88
2022-11-05T09:42:02.124Z,97548.41
2022-11-05T09:44:40.583Z,97539.00
2022-11-05T09:47:10.929Z,97539.69
2022-11-05T09:49:41.919Z,97542.38
2022-11-05T09:52:34.676Z,97544.09
2022-11-05T09:55:03.434Z,97548.38
2022-11-05T09:57:32.938Z,97546.66
2022-11-05T10:00:01.422Z,97550.06
2022-11-05T10:02:30.220Z,97560.28
2022-11-05T10:04:58.424Z,97541.22
2022-11-05T10:07:26.545Z,97556.88
2022-11-05T10:09:58.893Z,97561.97
2022-11-05T10:12:45.655Z,97567.09
2022-11-05T10:15:26.303Z,97567.09
2022-11-05T10:17:58.573Z,97573.03
2022-11-05T10:20:31.044Z,97570.47
2022-11-05T10:23:00.719Z,97568.78
2022-11-05T10:25:31.728Z,97567.03
2022-11-05T10:27:58.340Z,97568.63
2022-11-05T10:30:24.894Z,97560.06
2022-11-05T10:32:56.541Z,97571.16
2022-11-05T10:35:23.835Z,97581.56
2022-11-05T10:37:50.542Z,97573.75
2022-11-05T10:40:38.358Z,97578.13
2022-11-05T10:43:14.964Z,97583.22
2022-11-05T10:45:47.533Z,97590.13
2022-11-05T10:48:26.146Z,97595.19
2022-11-05T10:50:52.723Z,97590.13
2022-11-05T10:53:25.871Z,97577.94
2022-11-05T10:55:53.990Z,97591.78
2022-11-05T10:58:23.002Z,97589.22
2022-11-05T11:00:51.199Z,97479.94
2022-11-05T11:03:37.736Z,97599.47
2022-11-05T11:06:19.377Z,97587.50
2022-11-05T11:08:46.614Z,97589.22
2022-11-05T11:11:24.626Z,97592.59
2022-11-05T11:13:57.787Z,97590.91
2022-11-05T11:16:26.278Z,97592.63
2022-11-05T11:19:03.218Z,97591.75
2022-11-05T11:21:30.851Z,97593.47
2022-11-05T11:23:58.989Z,97587.50
2022-11-05T11:26:36.148Z,97587.44
2022-11-05T11:29:21.474Z,97588.34
2022-11-05T11:31:47.993Z,97591.75
2022-11-05T11:34:18.647Z,97601.16
2022-11-05T11:36:50.012Z,97596.03
2022-11-05T11:39:25.331Z,97596.88
2022-11-05T11:41:53.169Z,97586.38
2022-11-05T11:44:21.126Z,97586.50
2022-11-05T11:46:52.253Z,97581.22
2022-11-05T11:49:49.778Z,97595.97
2022-11-05T11:52:18.568Z,97598.47
2022-11-05T11:54:45.101Z,97599.31
2022-11-05T11:57:20.832Z,97605.34
2022-11-05T12:00:07.705Z,97601.94
2022-11-05T12:02:55.901Z,97616.47
2022-11-05T12:05:28.025Z,97607.13
2022-11-05T12:07:56.119Z,97617.38
2022-11-05T12:10:28.952Z,97619.91
2022-11-05T12:12:58.451Z,97610.56
2022-11-05T12:15:32.238Z,97617.41
2022-11-05T12:18:03.488Z,97614.84
2022-11-05T12:20:39.767Z,97619.09
2022-11-05T12:23:29.623Z,97615.72
2022-11-05T12:26:11.319Z,97619.09
2022-11-05T12:29:04.506Z,97615.72
2022-11-05T12:31:31.537Z,97609.69
2022-11-05T12:34:03.444Z,97611.44
2022-11-05T12:36:55.872Z,97615.72
2022-11-05T12:39:50.585Z,97617.41
2022-11-05T12:42:26.260Z,97622.53
2022-11-05T12:44:55.764Z,97621.66
2022-11-05T12:47:29.118Z,97618.25
2022-11-05T12:50:15.172Z,97616.53
2022-11-05T12:52:44.277Z,97615.69
2022-11-05T12:55:19.479Z,97604.34
2022-11-05T12:57:48.909Z,97638.72
2022-11-05T13:00:15.659Z,97617.41
2022-11-05T13:03:06.388Z,97599.97
2022-11-05T13:05:45.066Z,97617.41
2022-11-05T13:08:42.887Z,97613.06
2022-11-05T13:11:17.666Z,97626.78
2022-11-05T13:13:48.584Z,97622.53
2022-11-05T13:16:31.093Z,97627.66
2022-11-05T13:19:12.851Z,97627.66
2022-11-05T13:21:39.601Z,97612.13
2022-11-05T13:24:26.547Z,97625.09
2022-11-05T13:27:05.819Z,97616.44
2022-11-05T13:29:33.343Z,97627.66
2022-11-05T13:32:22.787Z,97625.09
2022-11-05T13:34:49.286Z,97622.53
2022-11-05T13:37:34.661Z,97628.53
2022-11-05T13:40:03.325Z,97628.53
2022-11-05T13:42:40.199Z,97634.50
2022-11-05T13:45:28.515Z,97634.44
2022-11-05T13:48:14.098Z,97633.66
2022-11-05T13:51:11.516Z,97633.66
2022-11-05T13:53:56.639Z,97637.06
2022-11-05T13:56:46.739Z,97633.59
2022-11-05T13:59:35.106Z,97666.06
2022-11-05T14:02:12.055Z,97644.69
2022-11-05T14:04:56.704Z,97641.34
2022-11-05T14:07:29.929Z,97641.34
2022-11-05T14:09:58.992Z,97629.94
2022-11-05T14:12:30.951Z,97634.25
2022-11-05T14:15:08.659Z,97641.28
2022-11-05T14:17:54.855Z,97643.81
2022-11-05T14:20:39.363Z,97645.50
2022-11-05T14:23:21.043Z,97642.13
2022-11-05T14:25:50.413Z,97649.81
2022-11-05T14:28:35.280Z,97654.94
2022-11-05T14:31:47.484Z,97653.13
2022-11-05T14:34:15.549Z,97666.91
2022-11-05T14:37:14.098Z,97666.00
2022-11-05T14:39:40.619Z,97653.84
2022-11-05T14:42:12.308Z,97652.97
2022-11-05T14:45:02.237Z,97668.56
2022-11-05T14:47:31.709Z,97656.41
2022-11-05T14:50:18.295Z,97683.94
2022-11-05T14:52:55.641Z,97682.25
2022-11-05T14:55:31.898Z,97677.13
2022-11-05T14:57:58.271Z,97682.25
2022-11-05T15:00:40.451Z,97690.75
2022-11-05T15:03:28.856Z,97695.06
2022-11-05T15:06:05.542Z,97695.88
2022-11-05T15:08:51.918Z,97699.31
2022-11-05T15:11:56.613Z,97702.75
2022-11-05T15:14:27.643Z,97696.75
2022-11-05T15:16:55.557Z,97701.91
2022-11-05T15:19:32.939Z,97695.91
2022-11-05T15:22:01.185Z,97696.75
2022-11-05T15:24:28.220Z,97703.59
2022-11-05T15:27:12.570Z,97594.22
2022-11-05T15:29:39.249Z,97682.72
2022-11-05T15:32:05.746Z,97707.00
2022-11-05T15:34:33.615Z,97720.69
2022-11-05T15:37:13.290Z,97716.41
2022-11-05T15:39:41.573Z,97718.91
2022-11-05T15:42:22.835Z,97712.84
2022-11-05T15:44:51.114Z,97720.63
2022-11-05T15:47:19.360Z,97721.47
2022-11-05T15:49:48.422Z,97713.63
2022-11-05T15:52:16.118Z,97729.13
2022-11-05T15:54:42.899Z,97722.19
2022-11-05T15:57:18.039Z,97725.72
2022-11-05T15:59:45.997Z,97729.16
2022-11-05T16:02:31.101Z,97735.16
2022-11-05T16:04:57.805Z,97731.72
2022-11-05T16:07:24.407Z,97730.88
2022-11-05T16:09:58.879Z,97729.94
2022-11-05T16:12:34.499Z,97739.41
2022-11-05T16:15:10.245Z,97738.56
2022-11-05T16:17:57.631Z,97736.84
2022-11-05T16:20:32.060Z,97742.78
2022-11-05T16:23:03.260Z,97737.69
2022-11-05T16:25:36.552Z,97741.91
2022-11-05T16:28:03.305Z,97726.28
2022-11-05T16:30:29.827Z,97747.03
2022-11-05T16:33:03.257Z,97744.47
2022-11-05T16:35:29.771Z,97742.75
2022-11-05T16:37:56.271Z,97745.28
2022-11-05T16:40:24.528Z,97749.56
2022-11-05T16:42:51.991Z,97761.56
2022-11-05T16:45:20.557Z,97753.88
2022-11-05T16:47:47.111Z,97748.72
2022-11-05T16:50:13.887Z,97764.06
2022-11-05T16:52:40.357Z,97642.53
2022-11-05T16:55:06.977Z,97773.44
2022-11-05T16:57:33.477Z,97769.25
2022-11-05T17:00:00.402Z,97777.72
2022-11-05T17:02:27.105Z,97759.63
2022-11-05T17:04:53.760Z,97780.28
2022-11-05T17:07:20.299Z,97777.72
2022-11-05T17:09:46.837Z,97782.84
2022-11-05T17:12:13.613Z,97782.84
2022-11-05T17:14:40.145Z,97789.72
2022-11-05T17:17:06.699Z,97791.44
2022-11-05T17:19:33.175Z,97798.25
2022-11-05T17:21:59.691Z,97798.31
2022-11-05T17:24:26.167Z,97801.69
2022-11-05T17:26:52.669Z,97805.94
2022-11-05T17:29:19.146Z,97805.94
2022-11-05T17:31:45.657Z,97809.38
2022-11-05T17:34:12.127Z,97813.66
2022-11-05T17:36:38.689Z,97817.06
2022-11-05T17:39:05.236Z,97812.69
2022-11-05T17:41:31.721Z,97819.66
2022-11-05T17:43:58.384Z,97816.97
2022-11-05T17:46:24.922Z,97820.50
2022-11-05T17:48:51.432Z,97827.34
2022-11-05T17:51:18.653Z,97834.16
2022-11-05T17:53:45.869Z,97831.59
2022-11-05T17:56:13.175Z,97835.91
2022-11-05T17:58:39.748Z,97836.72
2022-11-05T18:01:06.975Z,97839.28
2022-11-05T18:03:33.660Z,97839.28
2022-11-05T18:06:04.042Z,97841.84
2022-11-05T18:08:30.706Z,97833.22
2022-11-05T18:10:57.206Z,97852.97
2022-11-05T18:13:23.747Z,97851.25
2022-11-05T18:15:53.423Z,97857.19
2022-11-05T18:18:20.234Z,97864.03
2022-11-05T18:20:46.783Z,97853.78
2022-11-05T18:23:14.357Z,97852.91
2022-11-05T18:25:41.554Z,97848.53
2022-11-05T18:28:08.046Z,97860.59
2022-11-05T18:30:34.585Z,97849.47
2022-11-05T18:33:01.177Z,97854.53
2022-11-05T18:35:27.718Z,97855.47
2022-11-05T18:37:54.199Z,97853.75
2022-11-05T18:40:20.704Z,97852.91
2022-11-05T18:42:47.199Z,97846.91
2022-11-05T18:45:13.720Z,97850.34
2022-11-05T18:47:40.252Z,97846.88
2022-11-05T18:50:07.253Z,97840.00
2022-11-05T18:52:33.775Z,97847.78
2022-11-05T18:55:00.294Z,97848.63
2022-11-05T18:57:27.014Z,97849.44
2022-11-05T18:59:53.507Z,97850.34
2022-11-05T19:02:20.161Z,97860.59
2022-11-05T19:05:13.809Z,97865.72
2022-11-05T19:07:36.983Z,97861.44
2022-11-05T19:10:03.752Z,97865.66
2022-11-05T19:12:30.242Z,97862.28
2022-11-05T19:15:01.922Z,97867.41
2022-11-05T19:17:29.072Z,97869.03
2022-11-05T19:19:55.622Z,97872.53
2022-11-05T19:22:22.164Z,97875.09
2022-11-05T19:24:48.670Z,97875.03
2022-11-05T19:27:15.186Z,97867.25
2022-11-05T19:29:41.674Z,97882.75
2022-11-05T19:32:09.199Z,97880.16
2022-11-05T19:34:35.681Z,97880.94
2022-11-05T19:37:02.247Z,97888.78
2022-11-05T19:39:28.731Z,97891.22
2022-11-05T19:41:58.999Z,97889.59
2022-11-05T19:44:29.576Z,97887.84
2022-11-05T19:46:56.135Z,97885.31
2022-11-05T19:49:22.674Z,97874.78
2022-11-05T19:51:49.170Z,97876.69
2022-11-05T19:54:15.677Z,97883.59
2022-11-05T19:56:42.212Z,97878.38
2022-11-05T19:59:08.751Z,97885.31
2022-11-05T20:01:35.561Z,97881.03
2022-11-05T20:04:02.495Z,97871.63
2022-11-05T20:06:32.204Z,97867.34
2022-11-05T20:09:21.065Z,97872.53
2022-11-05T20:11:48.345Z,97885.31
2022-11-05T20:14:14.866Z,97877.44
2022-11-05T20:16:43.112Z,97893.00
2022-11-05T20:19:11.826Z,97893.88
2022-11-05T20:21:38.410Z,97888.72
2022-11-05T20:24:04.981Z,97895.53
2022-11-05T20:26:31.745Z,97898.13
2022-11-05T20:28:58.229Z,97886.94
2022-11-05T20:31:24.765Z,97897.28
2022-11-05T20:33:51.380Z,97898.13
2022-11-05T20:36:22.301Z,97892.91
2022-11-05T20:38:49.784Z,97900.66
2022-11-05T20:41:16.315Z,97901.53
2022-11-05T20:43:42.856Z,97898.03
2022-11-05T20:46:10.158Z,97904.13
2022-11-05T20:48:36.664Z,97903.25
2022-11-05T20:51:10.993Z,97898.91
2022-11-05T20:53:37.653Z,97913.50
2022-11-05T20:56:07.845Z,97916.09
2022-11-05T20:58:34.908Z,97910.88
2022-11-05T21:01:01.409Z,97923.69
2022-11-05T21:03:27.965Z,97909.16
2022-11-05T21:05:57.218Z,97897.03
2022-11-05T21:08:24.047Z,97911.66
2022-11-05T21:10:51.478Z,97916.88
2022-11-05T21:13:18.386Z,97914.28
2022-11-05T21:15:55.530Z,97919.50
2022-11-05T21:18:24.697Z,97903.84
2022-11-05T21:20:51.212Z,97916.06
2022-11-05T21:23:17.781Z,97919.50
2022-11-05T21:25:44.348Z,97917.81
2022-11-05T21:28:11.664Z,97911.81
2022-11-05T21:30:41.487Z,97901.38
2022-11-05T21:33:08.635Z,97922.94
2022-11-05T21:35:39.075Z,97916.94
2022-11-05T21:38:05.545Z,97901.47
2022-11-05T21:40:32.702Z,97915.25
2022-11-05T21:42:59.257Z,97910.13
2022-11-05T21:45:26.004Z,97901.47
2022-11-05T21:47:52.502Z,97909.25
2022-11-05T21:50:21.901Z,97915.25
2022-11-05T21:53:07.008Z,97924.63
2022-11-05T21:55:51.737Z,97922.06
2022-11-05T21:58:36.539Z,97922.06
2022-11-05T22:01:03.104Z,97926.31
2022-11-05T22:03:29.605Z,97926.31
2022-11-05T22:05:56.200Z,97929.75
2022-11-05T22:08:22.760Z,97935.75
2022-11-05T22:10:49.255Z,97930.63
2022-11-05T22:13:15.761Z,97817.53
2022-11-05T22:15:42.260Z,97922.84
2022-11-05T22:18:08.734Z,97920.38
2022-11-05T22:20:38.069Z,97923.78
2022-11-05T22:23:07.425Z,97917.81
2022-11-05T22:25:37.506Z,97928.06
2022-11-05T22:28:04.139Z,97914.19
2022-11-05T22:30:34.474Z,97919.50
2022-11-05T22:33:01.185Z,97928.06
2022-11-05T22:35:27.666Z,97928.06
2022-11-05T22:37:54.169Z,97922.91
2022-11-05T22:40:23.868Z,97919.50
2022-11-05T22:42:50.719Z,97921.13
2022-11-05T22:45:17.223Z,97920.34
2022-11-05T22:47:43.724Z,97916.75
2022-11-05T22:50:10.238Z,97833.09
2022-11-05T22:52:36.762Z,97917.78
2022-11-05T22:55:05.288Z,97920.34
2022-11-05T22:57:32.031Z,97917.81
2022-11-05T22:59:58.531Z,97906.69
2022-11-05T23:02:25.156Z,97906.59
2022-11-05T23:04:51.895Z,97911.81
2022-11-05T23:07:37.223Z,97902.31
2022-11-05T23:10:22.534Z,97909.22
2022-11-05T23:12:49.048Z,97910.09
2022-11-05T23:15:34.221Z,97914.22
2022-11-05T23:18:19.025Z,97923.69
2022-11-05T23:21:03.883Z,97918.56
2022-11-05T23:23:48.683Z,97921.97
2022-11-05T23:26:33.578Z,97922.84
2022-11-05T23:29:00.138Z,97918.56
2022-11-05T23:31:45.247Z,97920.28
2022-11-05T23:34:11.709Z,97920.34
2022-11-05T23:36:56.844Z,97922.00
2022-11-05T23:39:23.604Z,97918.63
2022-11-05T23:42:08.763Z,97913.44
2022-11-05T23:44:53.586Z,97916.00
2022-11-05T23:47:38.427Z,97919.44
2022-11-05T23:50:05.326Z,97919.44
2022-11-05T23:52:31.810Z,97918.63
2022-11-05T23:54:58.442Z,97910.78
2022-11-05T23:57:24.930Z,97914.31
2022-11-05T23:59:51.421Z,97908.38
